Time;durP1;ratioP1;P1;durP2;ratioP2;P2;SDS_P1;SDS_P2;PMS_P1;PMS_P2;Temp;Humidity;BMP_temperature;BMP_pressure;BME280_temperature;BME280_humidity;BME280_pressure;Samples;Min_cycle;Max_cycle;Signal;HPM_P1;HPM_P2
2023/03/04 00:01:15;;;;;;;;;;;;;;;;;;;;;
2023/03/04 00:04:05;;;;;;;8.35;0.90;;;5.80;99.90;;;;;;6103890;23;20097;-90
2023/03/04 00:17:12;;;;;;;7.05;0.90;;;6.00;99.90;;;;;;6095049;23;20113;-91
2023/03/04 00:19:47;;;;;;;5.07;1.00;;;6.00;99.90;;;;;;6095613;23;20399;-90
2023/03/04 00:22:56;;;;;;;6.88;0.82;;;6.00;99.90;;;;;;6111239;23;20083;-91
2023/03/04 00:25:53;;;;;;;5.20;0.90;;;5.90;99.90;;;;;;6158077;23;20028;-90
2023/03/04 00:28:56;;;;;;;6.07;1.00;;;6.00;99.90;;;;;;6134818;23;20156;-91
2023/03/04 00:31:48;;;;;;;12.07;1.30;;;6.20;99.90;;;;;;6159841;23;20104;-90
2023/03/04 00:34:57;;;;;;;4.25;0.73;;;6.10;99.90;;;;;;6135138;23;20029;-91
2023/03/04 00:43:28;;;;;;;5.43;0.63;;;6.00;99.90;;;;;;6277870;22;20098;-89
2023/03/04 00:46:32;;;;;;;5.70;0.70;;;6.30;99.90;;;;;;6249165;22;20019;-90
2023/03/04 00:49:27;;;;;;;12.40;1.10;;;5.40;99.90;;;;;;6124668;23;20128;-90
2023/03/04 00:52:15;;;;;;;8.65;0.82;;;5.70;99.90;;;;;;6124696;23;20014;-89
2023/03/04 00:55:08;;;;;;;6.93;1.50;;;6.00;99.90;;;;;;6042022;23;20132;-91
2023/03/04 00:58:23;;;;;;;9.38;1.30;;;6.00;99.90;;;;;;6042620;23;20014;-91
2023/03/04 01:00:54;;;;;;;7.60;0.90;;;6.00;99.90;;;;;;6066482;23;20147;-89
2023/03/04 01:03:48;;;;;;;9.52;0.90;;;6.10;99.90;;;;;;5981430;24;20020;-90
2023/03/04 01:06:32;;;;;;;9.80;1.50;;;6.10;99.90;;;;;;5978226;23;20413;-90
2023/03/04 01:09:48;;;;;;;7.72;0.98;;;6.00;99.90;;;;;;6037892;23;20034;-90
2023/03/04 01:16:19;;;;;;;;;;;;;;;;;;;;;
2023/03/04 01:19:40;;;;;;;9.93;1.05;;;6.20;99.90;;;;;;6070267;23;20030;-89
2023/03/04 01:22:38;;;;;;;;;;;;;;;;;;;;;
2023/03/04 01:25:45;;;;;;;;;;;;;;;;;;;;;
2023/03/04 01:28:49;;;;;;;11.57;1.17;;;6.00;99.90;;;;;;6099536;23;20062;-91
2023/03/04 01:31:29;;;;;;;4.60;0.80;;;6.10;99.90;;;;;;6095963;23;20473;-89
2023/03/04 01:34:17;;;;;;;8.60;0.80;;;6.00;99.90;;;;;;6093470;23;20022;-91
2023/03/04 01:37:09;;;;;;;9.75;1.15;;;5.90;99.90;;;;;;6070665;23;20018;-90
2023/03/04 01:39:41;;;;;;;16.55;1.17;;;6.00;99.90;;;;;;6069752;23;20015;-87
2023/03/04 01:42:29;;;;;;;6.68;1.45;;;6.40;99.90;;;;;;6100183;23;20018;-91
2023/03/04 01:45:07;;;;;;;5.68;1.95;;;5.90;99.90;;;;;;6099229;23;20045;-92
2023/03/04 01:47:39;;;;;;;6.97;1.20;;;5.90;99.90;;;;;;6099916;23;20057;-90
2023/03/04 01:50:18;;;;;;;10.43;1.17;;;5.80;99.90;;;;;;6099863;23;20014;-92
2023/03/04 01:52:44;;;;;;;13.07;2.38;;;5.80;99.90;;;;;;6099690;23;20081;-90
2023/03/04 01:55:34;;;;;;;9.32;1.17;;;5.90;99.90;;;;;;6099830;23;20022;-91
2023/03/04 01:58:32;;;;;;;6.68;1.20;;;5.80;99.90;;;;;;6134662;23;20022;-91
2023/03/04 02:01:01;;;;;;;11.00;1.05;;;6.10;99.90;;;;;;6065675;23;20018;-90
2023/03/04 02:03:42;;;;;;;7.72;1.00;;;5.90;99.90;;;;;;6066511;23;20022;-88
2023/03/04 02:06:17;;;;;;;10.27;1.15;;;5.90;99.90;;;;;;6042020;23;20023;-92
2023/03/04 02:08:53;;;;;;;5.70;0.80;;;5.70;99.90;;;;;;6154507;23;20021;-90
2023/03/04 02:11:33;;;;;;;15.07;1.45;;;5.80;99.90;;;;;;6182829;23;20025;-91
2023/03/04 02:14:07;;;;;;;7.75;0.90;;;5.60;99.90;;;;;;6133641;23;20025;-88
2023/03/04 02:16:56;;;;;;;11.35;1.35;;;5.50;99.90;;;;;;6180695;23;20023;-91
2023/03/04 02:19:46;;;;;;;8.10;1.20;;;5.80;99.90;;;;;;6163619;23;20031;-91
2023/03/04 02:22:27;;;;;;;9.40;0.85;;;5.80;99.90;;;;;;6187515;23;20386;-91
2023/03/04 02:25:12;;;;;;;7.18;0.93;;;5.70;99.90;;;;;;6188335;23;20111;-92
2023/03/04 02:27:49;;;;;;;3.28;0.73;;;5.20;99.90;;;;;;6189043;23;20091;-91
2023/03/04 02:30:24;;;;;;;5.57;0.95;;;5.40;99.90;;;;;;6187623;23;20016;-91
2023/03/04 02:33:14;;;;;;;11.02;1.02;;;5.70;99.90;;;;;;6188581;23;20027;-92
2023/03/04 02:36:03;;;;;;;3.13;0.60;;;5.80;99.90;;;;;;6163852;23;20071;-88
2023/03/04 02:38:35;;;;;;;5.05;0.68;;;5.80;99.90;;;;;;6255557;22;20015;-90
2023/03/04 02:41:07;;;;;;;7.72;1.00;;;5.70;99.90;;;;;;6279896;22;20026;-92
2023/03/04 02:43:38;;;;;;;5.38;0.60;;;5.80;99.90;;;;;;6254282;22;20015;-90
2023/03/04 02:49:13;;;;;;;6.80;0.70;;;5.70;99.90;;;;;;6186455;23;20020;-90
2023/03/04 02:51:42;;;;;;;20.90;1.52;;;6.00;99.90;;;;;;6186951;23;20017;-89
2023/03/04 02:54:22;;;;;;;3.13;0.60;;;5.90;99.90;;;;;;6187902;23;20440;-91
2023/03/04 03:00:46;;;;;;;8.38;1.67;;;6.00;99.90;;;;;;6213180;23;20020;-89
2023/03/04 03:03:23;;;;;;;8.60;0.98;;;5.90;99.90;;;;;;6187972;23;20051;-90
2023/03/04 03:06:04;;;;;;;10.30;1.52;;;5.80;99.90;;;;;;6213472;23;20027;-91
2023/03/04 03:08:39;;;;;;;6.97;1.00;;;5.80;99.90;;;;;;6213388;23;20024;-89
2023/03/04 03:18:51;;;;;;;4.80;0.70;;;5.90;99.90;;;;;;6207829;23;20063;-89
2023/03/04 03:21:31;;;;;;;6.75;0.80;;;5.80;99.90;;;;;;6213315;23;20020;-91
2023/03/04 03:24:00;;;;;;;6.22;0.70;;;5.80;99.90;;;;;;6200285;22;20051;-90
2023/03/04 03:26:26;;;;;;;4.63;0.60;;;5.80;99.90;;;;;;6248217;22;20047;-90
2023/03/04 03:29:12;;;;;;;8.50;0.60;;;5.70;99.90;;;;;;6246365;22;20012;-91
2023/03/04 03:31:55;;;;;;;7.18;0.73;;;5.80;99.90;;;;;;6276938;22;20012;-90
2023/03/04 03:34:25;;;;;;;9.45;0.73;;;5.90;99.90;;;;;;6223286;22;20512;-93
2023/03/04 03:36:58;;;;;;;6.97;1.02;;;5.80;99.90;;;;;;6224447;22;20065;-92
2023/03/04 03:39:24;;;;;;;13.13;1.05;;;5.90;99.90;;;;;;6249720;22;20070;-91
2023/03/04 03:41:52;;;;;;;2.85;0.60;;;5.80;99.90;;;;;;6276710;22;20095;-91
2023/03/04 03:44:24;;;;;;;4.50;0.60;;;6.20;99.90;;;;;;6249102;22;20020;-90
2023/03/04 03:47:11;;;;;;;5.40;0.75;;;5.70;99.90;;;;;;6248023;22;20099;-91
2023/03/04 03:49:43;;;;;;;5.05;0.52;;;5.80;99.90;;;;;;6277008;22;20504;-91
2023/03/04 03:52:16;;;;;;;8.25;0.95;;;5.80;99.90;;;;;;6249156;22;20015;-89
2023/03/04 03:54:54;;;;;;;7.18;0.90;;;5.80;99.90;;;;;;6252477;22;20031;-91
2023/03/04 04:01:12;;;;;;;2.85;0.60;;;5.70;99.90;;;;;;6276555;22;20031;-92
2023/03/04 04:03:38;;;;;;;2.80;0.47;;;6.10;99.90;;;;;;6276037;22;20015;-91
2023/03/04 04:06:25;;;;;;;3.92;0.45;;;5.80;99.90;;;;;;6275135;22;20012;-91
2023/03/04 04:09:09;;;;;;;4.15;0.45;;;5.80;99.90;;;;;;6249319;22;20026;-92
2023/03/04 04:15:23;;;;;;;2.90;0.40;;;5.70;99.90;;;;;;6276468;22;20077;-92
2023/03/04 04:18:02;;;;;;;;;;;5.80;99.90;;;;;;6248547;22;20062;-91
2023/03/04 04:20:58;;;;;;;4.53;0.80;;;6.40;99.90;;;;;;6276454;22;19982;-91
2023/03/04 04:23:38;;;;;;;4.18;0.40;;;5.90;99.90;;;;;;6245540;22;20094;-91
2023/03/04 04:26:39;;;;;;;1.75;0.40;;;5.70;99.90;;;;;;6224983;22;20067;-92
2023/03/04 04:29:41;;;;;;;4.65;0.50;;;5.90;99.90;;;;;;6276153;22;20098;-90
2023/03/04 04:32:34;;;;;;;5.57;0.60;;;6.40;99.90;;;;;;6274773;22;20016;-90
2023/03/04 04:35:34;;;;;;;6.95;0.70;;;5.90;99.90;;;;;;6252872;22;20023;-90
2023/03/04 04:38:09;;;;;;;8.55;0.50;;;6.10;99.90;;;;;;6249165;22;20087;-91
2023/03/04 04:40:43;;;;;;;;;;;6.10;99.90;;;;;;6249094;22;20020;-91
2023/03/04 04:43:18;;;;;;;8.65;0.80;;;6.00;99.90;;;;;;6248631;22;19916;-91
2023/03/04 04:46:13;;;;;;;;;;;;;;;;;;;;;
2023/03/04 04:48:49;;;;;;;4.47;0.70;;;6.10;99.90;;;;;;6138857;23;20023;-91
2023/03/04 04:51:31;;;;;;;5.70;0.47;;;5.80;99.90;;;;;;6217381;23;20363;-91
2023/03/04 04:53:59;;;;;;;5.70;0.63;;;5.90;99.90;;;;;;6217600;23;20054;-91
2023/03/04 05:00:55;;;;;;;3.70;0.73;;;6.00;99.90;;;;;;6244791;23;20016;-91
2023/03/04 05:03:25;;;;;;;6.30;0.70;;;5.70;99.90;;;;;;6245650;23;20332;-91
2023/03/04 05:06:03;;;;;;;8.00;0.90;;;5.80;99.90;;;;;;6220754;23;20106;-89
2023/03/04 05:08:38;;;;;;;6.13;0.85;;;5.80;99.90;;;;;;6220507;23;20347;-91
2023/03/04 05:11:10;;;;;;;11.40;1.10;;;5.50;99.90;;;;;;6220743;23;20028;-91
2023/03/04 05:13:39;;;;;;;3.45;0.38;;;5.70;99.90;;;;;;6243066;23;20024;-91
2023/03/04 05:16:12;;;;;;;7.45;0.70;;;6.00;99.90;;;;;;6226852;22;20016;-92
2023/03/04 05:18:40;;;;;;;4.47;0.45;;;5.90;99.90;;;;;;6251520;22;20525;-92
2023/03/04 05:21:13;;;;;;;4.30;0.60;;;5.90;99.90;;;;;;6272140;22;20024;-90
2023/03/04 05:23:42;;;;;;;5.63;1.02;;;5.80;99.90;;;;;;6201107;22;20023;-90
2023/03/04 05:30:16;;;;;;;5.68;0.85;;;6.00;99.90;;;;;;6277937;22;20074;-92
2023/03/04 05:32:51;;;;;;;3.85;0.50;;;5.90;99.90;;;;;;6249627;22;20019;-92
2023/03/04 05:35:17;;;;;;;7.18;0.77;;;5.60;99.90;;;;;;6248447;22;20466;-91
2023/03/04 05:37:46;;;;;;;8.85;1.25;;;5.90;99.90;;;;;;6249081;22;20338;-92
2023/03/04 05:40:26;;;;;;;3.45;0.60;;;5.90;99.90;;;;;;6277614;22;20051;-91
2023/03/04 05:42:59;;;;;;;7.55;0.85;;;5.90;99.90;;;;;;6277635;22;20023;-90
2023/03/04 05:45:28;;;;;;;12.65;1.55;;;5.90;99.90;;;;;;6277367;22;20054;-91
2023/03/04 05:48:02;;;;;;;14.02;0.85;;;6.10;99.90;;;;;;6276225;22;20015;-91
2023/03/04 05:50:29;;;;;;;9.85;1.13;;;6.10;99.90;;;;;;6277944;22;20137;-93
2023/03/04 05:53:03;;;;;;;3.42;0.63;;;6.40;99.90;;;;;;6251191;22;20030;-91
2023/03/04 05:55:46;;;;;;;3.20;0.35;;;6.00;99.90;;;;;;6250164;22;20042;-92
2023/03/04 05:58:22;;;;;;;7.95;0.60;;;4.70;99.90;;;;;;6251434;22;20024;-92
2023/03/04 06:00:57;;;;;;;7.78;0.77;;;6.00;99.90;;;;;;6249758;22;20024;-92
2023/03/04 06:03:33;;;;;;;5.60;0.80;;;5.90;99.90;;;;;;6225406;22;20016;-92
2023/03/04 06:06:06;;;;;;;3.55;0.60;;;5.90;99.90;;;;;;6277905;22;20020;-91
2023/03/04 06:08:37;;;;;;;5.35;0.50;;;5.80;99.90;;;;;;6250763;22;20050;-92
2023/03/04 06:15:39;;;;;;;3.33;0.40;;;5.50;99.90;;;;;;6277500;22;20027;-90
2023/03/04 06:18:10;;;;;;;1.50;0.43;;;5.80;99.90;;;;;;6198178;22;20020;-93
2023/03/04 06:20:46;;;;;;;3.08;0.28;;;5.30;99.90;;;;;;6199075;22;20055;-90
2023/03/04 06:23:17;;;;;;;2.55;0.22;;;5.60;99.90;;;;;;6250293;22;20030;-90
2023/03/04 06:26:17;;;;;;;3.60;0.32;;;5.40;99.90;;;;;;6225062;22;20015;-91
2023/03/04 06:28:49;;;;;;;5.95;0.55;;;5.50;99.90;;;;;;6276772;22;20350;-91
2023/03/04 06:31:43;;;;;;;5.50;0.60;;;5.70;99.90;;;;;;6244891;22;20016;-90
2023/03/04 06:34:41;;;;;;;4.82;0.60;;;5.70;99.90;;;;;;6250312;22;20024;-89
2023/03/04 06:37:12;;;;;;;10.80;0.70;;;5.70;99.90;;;;;;6250315;22;20016;-88
2023/03/04 06:40:32;;;;;;;4.93;0.65;;;5.70;99.90;;;;;;6249795;22;20092;-89
2023/03/04 07:05:25;;;;;;;4.38;0.75;;;5.70;99.90;;;;;;6126209;23;20076;-90
2023/03/04 07:08:43;;;;;;;6.57;0.57;;;5.70;99.90;;;;;;5989573;23;20033;-89
2023/03/04 07:26:50;;;;;;;14.50;1.63;;;5.90;99.90;;;;;;5980170;24;20032;-88
2023/03/04 07:30:21;;;;;;;6.78;0.98;;;5.80;99.90;;;;;;5795847;24;20097;-90
2023/03/04 07:36:43;;;;;;;8.55;1.55;;;5.90;99.90;;;;;;5814656;24;20348;-89
2023/03/04 07:39:58;;;;;;;17.90;2.22;;;5.90;99.90;;;;;;5798598;24;20018;-90
2023/03/04 07:46:51;;;;;;;11.25;1.75;;;6.00;99.90;;;;;;5871354;24;20075;-90
2023/03/04 07:49:17;;;;;;;11.27;1.13;;;5.90;99.90;;;;;;5847370;24;20105;-86
2023/03/04 07:51:48;;;;;;;15.98;1.45;;;6.00;99.90;;;;;;5870266;24;20045;-90
2023/03/04 07:54:40;;;;;;;17.35;1.92;;;5.90;99.90;;;;;;5847929;24;20068;-91
2023/03/04 07:57:14;;;;;;;12.55;1.60;;;6.10;99.90;;;;;;5869301;24;20160;-86
2023/03/04 07:59:40;;;;;;;14.57;2.10;;;6.00;99.90;;;;;;5870096;24;20033;-86
2023/03/04 08:02:09;;;;;;;15.02;2.65;;;6.00;99.90;;;;;;5881885;24;20029;-86
2023/03/04 08:04:35;;;;;;;11.85;1.20;;;6.30;99.90;;;;;;5941372;23;20024;-87
2023/03/04 08:07:00;;;;;;;14.18;1.63;;;5.90;99.90;;;;;;6138095;23;20021;-86
2023/03/04 08:09:26;;;;;;;13.45;1.10;;;5.80;99.90;;;;;;6152455;23;20014;-85
2023/03/04 08:11:52;;;;;;;12.57;1.65;;;6.00;99.90;;;;;;6152029;23;20028;-85
2023/03/04 08:14:18;;;;;;;14.18;1.23;;;7.10;99.90;;;;;;6152372;23;20048;-85
2023/03/04 08:16:44;;;;;;;20.15;2.17;;;6.00;99.90;;;;;;6127291;23;20141;-85
2023/03/04 08:19:13;;;;;;;12.98;1.95;;;6.00;99.90;;;;;;6238515;22;20022;-85
2023/03/04 08:21:38;;;;;;;13.80;1.83;;;6.10;99.90;;;;;;6279134;22;20011;-86
2023/03/04 08:24:07;;;;;;;10.85;1.17;;;6.00;99.90;;;;;;6279176;22;20073;-86
2023/03/04 08:26:44;;;;;;;10.43;3.08;;;6.10;99.90;;;;;;6253815;22;20023;-86
2023/03/04 08:29:13;;;;;;;7.50;1.10;;;5.80;99.90;;;;;;6279474;22;20023;-85
2023/03/04 08:31:39;;;;;;;15.85;1.25;;;6.20;99.90;;;;;;6253949;22;20049;-86
2023/03/04 08:34:07;;;;;;;12.07;1.65;;;6.30;99.90;;;;;;6279295;22;20015;-85
2023/03/04 08:36:36;;;;;;;16.70;1.40;;;7.40;99.90;;;;;;6280333;22;20016;-88
2023/03/04 08:39:07;;;;;;;12.40;1.25;;;6.20;99.90;;;;;;6281298;22;20023;-86
2023/03/04 08:41:33;;;;;;;10.32;1.40;;;6.30;99.90;;;;;;6308907;22;20043;-85
2023/03/04 08:43:59;;;;;;;13.40;1.50;;;6.80;99.90;;;;;;6308937;22;20015;-86
2023/03/04 08:46:25;;;;;;;4.30;0.73;;;6.40;99.90;;;;;;6309130;22;20086;-85
2023/03/04 08:48:51;;;;;;;10.45;1.38;;;6.50;99.90;;;;;;6281028;22;20492;-85
2023/03/04 08:51:17;;;;;;;11.15;1.10;;;6.50;99.90;;;;;;6281208;22;20064;-86
2023/03/04 08:53:43;;;;;;;51.17;5.22;;;7.50;99.90;;;;;;6281422;22;20430;-84
2023/03/04 08:56:10;;;;;;;8.68;1.08;;;6.60;99.90;;;;;;6281238;22;20051;-86
2023/03/04 08:58:35;;;;;;;20.50;2.22;;;6.10;99.90;;;;;;6280752;22;20022;-84
2023/03/04 09:01:02;;;;;;;9.32;1.00;;;6.60;99.90;;;;;;6281520;22;20027;-86
2023/03/04 09:03:28;;;;;;;8.82;1.70;;;6.50;99.90;;;;;;6308629;22;20039;-84
2023/03/04 09:06:02;;;;;;;8.10;1.00;;;6.60;99.90;;;;;;6280580;22;20460;-89
2023/03/04 09:08:45;;;;;;;3.35;0.80;;;6.60;99.90;;;;;;6308785;22;20011;-89
2023/03/04 09:11:15;;;;;;;8.15;1.42;;;6.70;99.90;;;;;;6280715;22;20019;-86
2023/03/04 09:13:40;;;;;;;5.15;0.73;;;7.50;99.90;;;;;;6309056;22;20012;-85
2023/03/04 09:16:13;;;;;;;8.20;0.50;;;6.90;99.90;;;;;;6308630;22;20027;-85
2023/03/04 09:18:43;;;;;;;4.35;0.50;;;6.70;99.90;;;;;;6281636;22;20026;-88
2023/03/04 09:21:50;;;;;;;7.03;0.50;;;6.60;99.90;;;;;;6281359;22;20019;-91
2023/03/04 09:25:26;;;;;;;2.90;0.60;;;6.40;99.90;;;;;;6280915;22;20019;-89
2023/03/04 09:32:14;;;;;;;6.75;0.68;;;6.50;99.90;;;;;;6154692;23;20048;-92
2023/03/04 09:35:18;;;;;;;5.28;0.60;;;6.70;99.90;;;;;;6129293;23;20025;-90
2023/03/04 09:38:05;;;;;;;7.75;0.80;;;6.70;99.90;;;;;;6041941;23;20089;-89
2023/03/04 09:47:51;;;;;;;8.40;0.60;;;7.20;99.90;;;;;;6041257;23;20066;-92
2023/03/04 09:51:04;;;;;;;9.98;0.80;;;7.30;99.90;;;;;;6040024;23;20060;-92
2023/03/04 10:07:17;;;;;;;10.85;1.10;;;7.00;99.90;;;;;;6304659;22;20027;-88
2023/03/04 10:22:36;;;;;;;;;;;;;;;;;;;;;
2023/03/04 10:25:56;;;;;;;9.32;1.45;;;6.90;99.90;;;;;;5804092;24;20010;-91
2023/03/04 11:07:19;;;;;;;8.63;1.25;;;7.30;99.90;;;;;;6241151;22;20032;-88
2023/03/04 11:25:38;;;;;;;9.10;1.25;;;7.60;99.90;;;;;;6252855;22;20367;-92
2023/03/04 11:29:07;;;;;;;13.70;1.27;;;7.40;99.90;;;;;;6254616;22;20651;-93
2023/03/04 11:31:45;;;;;;;8.15;1.10;;;7.20;99.90;;;;;;6170677;23;20065;-93
2023/03/04 11:34:48;;;;;;;5.45;0.70;;;7.20;99.90;;;;;;6173491;23;20021;-93
2023/03/04 11:38:10;;;;;;;9.48;1.10;;;7.30;99.90;;;;;;6163447;23;20017;-90
2023/03/04 11:41:23;;;;;;;;;;;;;;;;;;;;;
2023/03/04 11:44:24;;;;;;;7.63;1.27;;;7.30;99.90;;;;;;6047985;23;20027;-91
2023/03/04 11:47:17;;;;;;;9.75;0.88;;;7.50;99.90;;;;;;5973321;23;20027;-93
2023/03/04 11:49:49;;;;;;;13.60;1.10;;;7.40;99.90;;;;;;6016512;23;20067;-95
2023/03/04 11:52:29;;;;;;;7.45;0.65;;;7.50;99.90;;;;;;6017397;23;20066;-93
2023/03/04 11:55:12;;;;;;;7.70;1.20;;;7.10;99.90;;;;;;5989555;23;20026;-93
2023/03/04 11:58:06;;;;;;;11.45;1.05;;;7.50;99.90;;;;;;6012772;23;20494;-93
2023/03/04 12:01:02;;;;;;;6.65;0.77;;;7.60;99.90;;;;;;5990083;23;20031;-91
2023/03/04 12:04:07;;;;;;;8.98;1.13;;;7.90;99.90;;;;;;6016716;23;20027;-91
2023/03/04 12:07:08;;;;;;;6.72;0.88;;;7.90;99.90;;;;;;6016346;23;20163;-93
2023/03/04 12:10:05;;;;;;;5.28;0.60;;;7.90;99.90;;;;;;6016110;23;20061;-87
2023/03/04 12:13:11;;;;;;;4.63;0.80;;;8.00;99.90;;;;;;5993728;23;20027;-93
2023/03/04 12:16:22;;;;;;;4.20;0.65;;;7.80;99.90;;;;;;6021759;23;20102;-91
2023/03/04 12:22:45;;;;;;;11.38;1.20;;;8.10;99.90;;;;;;5964842;23;20027;-93
2023/03/04 12:25:51;;;;;;;9.88;1.13;;;8.00;99.90;;;;;;5942381;24;20040;-94
2023/03/04 12:32:38;;;;;;;14.10;1.30;;;8.10;99.90;;;;;;5989014;24;20503;-92
2023/03/04 12:35:47;;;;;;;6.78;0.75;;;8.20;99.90;;;;;;5946275;24;20024;-93
2023/03/04 12:39:23;;;;;;;6.28;0.80;;;8.10;99.90;;;;;;5972074;23;20032;-88
2023/03/04 12:42:21;;;;;;;13.02;1.52;;;8.30;99.90;;;;;;5959645;24;20084;-94
2023/03/04 12:45:17;;;;;;;16.92;2.15;;;7.60;99.90;;;;;;5959613;24;20058;-91
2023/03/04 12:48:33;;;;;;;11.18;1.02;;;8.40;99.90;;;;;;5959210;24;20035;-93
2023/03/04 12:51:42;;;;;;;5.07;0.90;;;7.80;99.90;;;;;;5955958;24;20029;-89
2023/03/04 12:58:21;;;;;;;;;;;;;;;;;;;;;
2023/03/04 13:01:31;;;;;;;8.18;0.88;;;7.90;99.90;;;;;;6243713;23;20016;-90
2023/03/04 13:04:21;;;;;;;14.05;1.17;;;8.60;99.90;;;;;;6247546;23;20308;-92
2023/03/04 13:07:07;;;;;;;6.72;0.95;;;8.30;99.90;;;;;;6244513;23;20020;-93
2023/03/04 13:09:49;;;;;;;6.07;0.90;;;8.40;99.90;;;;;;6221257;23;20040;-89
2023/03/04 13:12:20;;;;;;;8.02;0.93;;;8.30;99.90;;;;;;6245439;23;20047;-93
2023/03/04 13:15:10;;;;;;;5.50;0.80;;;8.40;99.90;;;;;;6245752;23;20110;-89
2023/03/04 13:17:57;;;;;;;6.50;1.38;;;8.40;99.90;;;;;;6245606;23;20062;-92
2023/03/04 13:20:29;;;;;;;8.45;1.08;;;8.40;99.90;;;;;;6244974;23;20026;-92
2023/03/04 13:23:35;;;;;;;7.93;0.80;;;8.40;99.90;;;;;;6245700;23;20092;-92
2023/03/04 13:26:28;;;;;;;10.05;1.08;;;8.30;99.90;;;;;;6244360;23;20371;-91
2023/03/04 13:32:40;;;;;;;9.95;0.90;;;8.00;99.90;;;;;;6246525;23;20386;-90
2023/03/04 13:35:47;;;;;;;5.65;1.20;;;8.40;99.90;;;;;;6245125;23;20064;-89
2023/03/04 13:38:36;;;;;;;10.05;0.95;;;8.20;99.90;;;;;;6129066;23;20013;-90
2023/03/04 13:41:07;;;;;;;3.97;0.60;;;7.70;99.90;;;;;;6152902;23;20026;-89
2023/03/04 13:43:41;;;;;;;3.65;0.60;;;8.00;99.90;;;;;;6129195;23;20020;-92
2023/03/04 13:46:19;;;;;;;6.82;2.00;;;8.00;99.90;;;;;;6155870;23;20030;-93
2023/03/04 13:48:51;;;;;;;5.97;0.80;;;8.10;99.90;;;;;;6154299;23;20025;-92
2023/03/04 13:51:31;;;;;;;13.95;1.20;;;8.00;99.90;;;;;;6154074;23;20025;-92
2023/03/04 13:54:22;;;;;;;5.03;0.95;;;7.90;99.90;;;;;;6129596;23;20018;-92
2023/03/04 13:57:00;;;;;;;11.40;1.15;;;7.70;99.90;;;;;;6129318;23;20018;-89
2023/03/04 13:59:47;;;;;;;10.50;0.70;;;7.70;99.90;;;;;;6128679;23;20026;-91
2023/03/04 14:02:28;;;;;;;3.13;0.57;;;7.60;99.90;;;;;;6128871;23;20021;-91
2023/03/04 14:05:09;;;;;;;8.07;0.50;;;7.40;99.90;;;;;;6127953;23;20029;-92
2023/03/04 14:07:38;;;;;;;13.90;1.08;;;7.40;99.90;;;;;;6129202;23;20022;-92
2023/03/04 14:10:10;;;;;;;3.88;0.60;;;7.30;99.90;;;;;;6129711;23;20021;-91
2023/03/04 14:12:57;;;;;;;9.80;0.75;;;7.10;99.90;;;;;;6163023;23;20029;-92
2023/03/04 14:15:26;;;;;;;5.13;0.80;;;7.20;99.90;;;;;;6248014;23;20016;-91
2023/03/04 14:18:01;;;;;;;3.88;1.08;;;7.40;99.90;;;;;;6247050;23;20012;-92
2023/03/04 14:20:35;;;;;;;5.85;0.80;;;7.50;99.90;;;;;;6250456;22;20047;-92
2023/03/04 14:23:29;;;;;;;5.10;1.00;;;7.70;99.90;;;;;;6224584;23;20171;-91
2023/03/04 14:26:19;;;;;;;4.65;0.60;;;7.40;99.90;;;;;;6248976;23;20518;-92
2023/03/04 14:28:47;;;;;;;6.57;0.93;;;7.40;99.90;;;;;;6227048;23;20500;-90
2023/03/04 14:31:22;;;;;;;3.03;0.60;;;7.00;99.90;;;;;;6250770;23;20031;-94
2023/03/04 14:34:13;;;;;;;8.88;1.00;;;7.10;99.90;;;;;;6247184;22;20016;-92
2023/03/04 14:36:45;;;;;;;10.32;0.85;;;7.00;99.90;;;;;;6247654;23;20024;-90
2023/03/04 14:39:16;;;;;;;10.55;0.70;;;7.00;99.90;;;;;;6225610;23;20027;-92
2023/03/04 14:41:44;;;;;;;7.20;0.88;;;6.90;99.90;;;;;;6247448;23;20450;-91
2023/03/04 14:47:56;;;;;;;7.68;0.65;;;6.90;99.90;;;;;;6249571;23;20062;-93
2023/03/04 14:50:24;;;;;;;3.88;0.90;;;7.40;99.90;;;;;;6248881;22;20051;-92
2023/03/04 14:53:23;;;;;;;3.83;0.60;;;7.10;99.90;;;;;;6245145;23;20016;-93
2023/03/04 14:56:27;;;;;;;6.93;0.68;;;7.20;99.90;;;;;;6245117;23;20531;-88
2023/03/04 14:58:58;;;;;;;7.63;0.70;;;7.00;99.90;;;;;;6239849;23;20043;-90
2023/03/04 15:01:32;;;;;;;7.32;0.80;;;7.10;99.90;;;;;;6245135;23;20023;-87
2023/03/04 15:04:18;;;;;;;5.72;0.88;;;7.20;99.90;;;;;;6246578;22;20020;-88
2023/03/04 15:06:51;;;;;;;;;;;7.10;99.90;;;;;;6244660;23;20047;-88
2023/03/04 15:09:41;;;;;;;9.52;1.50;;;7.00;99.90;;;;;;6242259;23;19964;-88
2023/03/04 15:12:12;;;;;;;8.82;0.60;;;6.80;99.90;;;;;;6245678;23;20027;-92
2023/03/04 15:14:53;;;;;;;2.63;0.60;;;6.70;99.90;;;;;;6220039;23;20098;-91
2023/03/04 15:17:44;;;;;;;4.93;0.60;;;6.70;99.90;;;;;;6246939;23;20024;-91
2023/03/04 15:21:11;;;;;;;3.90;0.80;;;6.60;99.90;;;;;;6218843;23;20020;-88
2023/03/04 15:23:42;;;;;;;6.22;0.90;;;7.00;99.90;;;;;;6179062;22;20031;-91
2023/03/04 15:26:15;;;;;;;3.97;0.70;;;7.10;99.90;;;;;;6247680;22;20477;-91
2023/03/04 15:28:41;;;;;;;4.65;1.05;;;6.40;99.90;;;;;;6222161;23;20080;-92
2023/03/04 15:31:22;;;;;;;2.95;0.70;;;6.60;99.90;;;;;;6249184;22;20508;-89
2023/03/04 15:33:54;;;;;;;5.30;0.73;;;6.70;99.90;;;;;;6246801;22;20124;-93
2023/03/04 15:36:26;;;;;;;6.05;0.85;;;6.70;99.90;;;;;;6248906;23;20513;-89
2023/03/04 15:39:33;;;;;;;4.80;0.98;;;6.70;99.90;;;;;;6248285;22;20435;-90
2023/03/04 15:53:44;;;;;;;5.43;1.00;;;6.30;99.90;;;;;;6247737;23;20015;-90
2023/03/04 16:10:37;;;;;;;6.13;0.85;;;6.20;99.90;;;;;;6018175;23;20143;-86
2023/03/04 16:27:52;;;;;;;9.23;0.80;;;6.00;99.90;;;;;;6271033;22;20024;-87
2023/03/04 16:30:24;;;;;;;4.28;0.70;;;6.00;99.90;;;;;;6248975;22;20023;-92
2023/03/04 16:33:43;;;;;;;11.77;0.80;;;5.90;99.90;;;;;;6250280;22;20023;-92
2023/03/04 16:36:35;;;;;;;2.17;0.40;;;5.50;99.90;;;;;;6246958;22;20084;-92
2023/03/04 16:39:52;;;;;;;;;;;;;;;;;;;;;
2023/03/04 16:42:52;;;;;;;7.40;0.90;;;5.80;99.90;;;;;;6065655;23;20019;-90
2023/03/04 16:46:21;;;;;;;1.85;0.52;;;5.70;99.90;;;;;;6040117;23;20062;-88
2023/03/04 16:49:45;;;;;;;9.65;1.05;;;5.60;99.90;;;;;;6066120;23;20026;-90
2023/03/04 16:52:52;;;;;;;4.38;0.47;;;4.90;99.90;;;;;;6010113;23;20169;-90
2023/03/04 16:55:26;;;;;;;8.10;0.90;;;4.70;99.90;;;;;;5985577;23;20146;-89
2023/03/04 17:27:03;;;;;;;9.63;0.98;;;5.00;99.90;;;;;;6058244;23;20098;-86
2023/03/04 17:48:28;;;;;;;;;;;;;;;;;;;;;
2023/03/04 17:56:52;;;;;;;7.30;1.15;;;4.90;99.90;;;;;;6275120;22;20024;-89
2023/03/04 17:59:36;;;;;;;5.38;0.80;;;4.90;99.90;;;;;;6272892;22;20443;-87
2023/03/04 18:02:26;;;;;;;7.75;0.75;;;4.60;99.90;;;;;;6275952;22;20490;-88
2023/03/04 18:05:04;;;;;;;5.95;0.60;;;5.50;99.90;;;;;;6247432;22;20020;-90
2023/03/04 18:08:03;;;;;;;6.05;0.85;;;5.60;99.90;;;;;;6225649;22;20015;-86
2023/03/04 18:10:29;;;;;;;7.55;1.30;;;5.50;99.90;;;;;;6251563;22;20020;-91
2023/03/04 18:12:55;;;;;;;2.75;0.50;;;4.70;99.90;;;;;;6250062;22;20055;-88
2023/03/04 18:15:23;;;;;;;3.10;0.60;;;5.70;99.90;;;;;;6255668;22;20022;-88
2023/03/04 18:17:49;;;;;;;5.97;0.65;;;4.60;99.90;;;;;;6248499;22;20015;-91
2023/03/04 18:20:15;;;;;;;6.10;0.73;;;4.90;99.90;;;;;;6248673;22;20028;-87
2023/03/04 18:22:42;;;;;;;7.13;0.80;;;4.60;99.90;;;;;;6249157;22;20073;-88
2023/03/04 18:25:11;;;;;;;6.85;0.80;;;5.50;99.90;;;;;;6248758;22;20069;-89
2023/03/04 18:27:41;;;;;;;5.82;1.15;;;4.60;99.90;;;;;;6248954;22;20011;-91
2023/03/04 18:30:19;;;;;;;3.88;0.73;;;5.00;99.90;;;;;;6249079;22;20015;-88
2023/03/04 18:32:46;;;;;;;2.45;0.65;;;4.60;99.90;;;;;;6249090;22;20034;-88
2023/03/04 18:35:13;;;;;;;4.72;0.52;;;5.50;99.90;;;;;;6276145;22;20023;-89
2023/03/04 18:37:40;;;;;;;5.10;0.60;;;5.20;99.90;;;;;;6223991;22;20062;-89
2023/03/04 18:40:07;;;;;;;6.63;0.75;;;3.90;99.90;;;;;;6248733;22;20410;-87
2023/03/04 18:42:32;;;;;;;5.25;0.80;;;4.60;99.90;;;;;;6249125;22;20091;-86
2023/03/04 18:45:01;;;;;;;3.55;0.80;;;4.70;99.90;;;;;;6248584;22;20054;-86
2023/03/04 18:47:27;;;;;;;7.63;1.08;;;4.70;99.90;;;;;;6248257;22;20446;-87
2023/03/04 18:49:53;;;;;;;7.10;0.73;;;4.90;99.90;;;;;;6248171;22;20073;-87
2023/03/04 18:52:19;;;;;;;6.40;1.30;;;5.00;99.90;;;;;;6249129;22;20091;-88
2023/03/04 18:54:47;;;;;;;8.32;1.25;;;5.40;99.90;;;;;;6249329;22;20016;-90
2023/03/04 18:57:38;;;;;;;5.90;0.90;;;4.90;99.90;;;;;;6277801;22;20039;-87
2023/03/04 19:08:05;;;;;;;5.07;0.50;;;4.60;99.90;;;;;;6137027;22;20085;-88
2023/03/04 19:10:46;;;;;;;5.53;0.77;;;4.40;99.90;;;;;;6218752;23;20016;-87
2023/03/04 19:17:34;;;;;;;6.53;0.80;;;5.20;99.90;;;;;;6124604;23;20034;-88
2023/03/04 19:20:29;;;;;;;1.48;0.40;;;4.50;99.90;;;;;;6100155;23;20272;-88
2023/03/04 19:23:12;;;;;;;5.85;0.50;;;4.90;99.90;;;;;;6100141;23;20021;-85
2023/03/04 19:25:42;;;;;;;6.00;0.60;;;4.50;99.90;;;;;;6100337;23;20022;-90
2023/03/04 19:29:03;;;;;;;7.97;0.65;;;5.30;99.90;;;;;;6125186;23;20022;-89
2023/03/04 19:36:46;;;;;;;4.63;1.10;;;4.70;99.90;;;;;;5927088;24;20036;-90
2023/03/04 19:50:43;;;;;;;10.77;1.80;;;4.50;99.90;;;;;;5596627;22;15115046;-91
2023/03/04 19:53:19;;;;;;;9.55;1.90;;;4.40;99.90;;;;;;6131034;23;20028;-90
2023/03/04 19:55:52;;;;;;;7.03;1.70;;;4.30;99.90;;;;;;6131938;23;20017;-86
2023/03/04 19:58:19;;;;;;;10.00;1.83;;;4.20;99.90;;;;;;6130909;23;20116;-86
2023/03/04 20:00:45;;;;;;;5.15;1.30;;;4.40;99.90;;;;;;6107258;23;20018;-85